Time;durP1;ratioP1;P1;durP2;ratioP2;P2;SDS_P1;SDS_P2;PMS_P1;PMS_P2;Temp;Humidity;BMP_temperature;BMP_pressure;BME280_temperature;BME280_humidity;BME280_pressure;Samples;Min_cycle;Max_cycle;Signal;HPM_P1;HPM_P2
2021/01/31 00:02:16;;;;;;;0.40;0.40;;;;;;;-1.22;81.70;98051.06;5037098;28;20482;-90
2021/01/31 00:04:47;;;;;;;0.40;0.40;;;;;;;-1.10;81.60;98070.63;5035371;28;20262;-90
2021/01/31 00:07:34;;;;;;;0.50;0.50;;;;;;;-1.13;81.67;98064.94;5113658;23;20228;-93
2021/01/31 00:10:21;;;;;;;0.40;0.40;;;;;;;-1.55;82.21;98018.31;5026510;23;20296;-92
2021/01/31 00:12:54;;;;;;;0.43;0.43;;;;;;;-1.35;82.28;98059.56;5039726;28;20222;-90
2021/01/31 00:15:50;;;;;;;0.40;0.40;;;;;;;-1.23;82.94;98078.34;5061312;23;20279;-83
2021/01/31 00:18:23;;;;;;;0.40;0.40;;;;;;;-1.31;83.14;98083.69;5038284;28;20228;-89
2021/01/31 00:21:19;;;;;;;0.50;0.50;;;;;;;-1.56;82.76;98050.81;5041387;28;20220;-89
2021/01/31 00:23:54;;;;;;;0.50;0.50;;;;;;;-1.53;83.82;98074.91;5038025;23;20327;-85
2021/01/31 00:26:20;;;;;;;0.40;0.40;;;;;;;-1.53;84.25;98088.03;5034599;28;20228;-87
2021/01/31 00:28:54;;;;;;;0.50;0.50;;;;;;;-1.62;83.95;98072.53;5019370;28;20237;-90
2021/01/31 00:31:27;;;;;;;0.40;0.40;;;;;;;-1.71;84.70;98061.31;5046836;23;20251;-88
2021/01/31 00:34:23;;;;;;;0.40;0.40;;;;;;;-1.59;84.80;98101.09;5021744;23;20229;-85
2021/01/31 00:36:55;;;;;;;0.40;0.40;;;;;;;-1.74;85.61;98087.94;5001671;28;20640;-84
2021/01/31 00:39:37;;;;;;;0.50;0.50;;;;;;;-1.80;85.75;98086.00;5018653;23;20210;-82
2021/01/31 00:42:09;;;;;;;0.40;0.40;;;;;;;-1.73;86.26;98086.13;5054273;23;20243;-83
2021/01/31 00:44:44;;;;;;;0.40;0.40;;;;;;;-1.58;86.39;98097.44;5041164;28;20216;-82
2021/01/31 00:47:22;;;;;;;0.40;0.40;;;;;;;-1.39;86.34;98097.72;5042637;28;20229;-82
2021/01/31 00:50:03;;;;;;;0.40;0.40;;;;;;;-1.56;85.76;98069.19;5066207;23;20221;-82
2021/01/31 00:52:32;;;;;;;0.40;0.40;;;;;;;-1.47;84.79;98089.94;5019476;28;20221;-88
2021/01/31 00:55:06;;;;;;;0.40;0.40;;;;;;;-1.48;84.85;98090.94;5019627;28;20272;-91
2021/01/31 00:57:35;;;;;;;0.40;0.40;;;;;;;-1.53;85.10;98097.72;4994387;28;20213;-84
2021/01/31 01:00:48;;;;;;;0.40;0.40;;;;;;;-1.50;85.40;98108.69;5026111;28;20201;-83
2021/01/31 01:03:35;;;;;;;0.40;0.40;;;;;;;-1.90;85.56;98078.38;5041489;28;20300;-83
2021/01/31 01:06:05;;;;;;;0.40;0.40;;;;;;;-1.89;85.09;98073.94;5039206;28;20251;-84
2021/01/31 01:08:35;;;;;;;0.50;0.50;;;;;;;-1.71;84.86;98113.81;5047068;23;20577;-83
2021/01/31 01:11:21;;;;;;;0.50;0.50;;;;;;;-1.58;85.27;98119.25;5021429;23;20306;-83
2021/01/31 01:13:50;;;;;;;0.40;0.40;;;;;;;-1.66;85.78;98115.91;5044714;28;20193;-83
2021/01/31 01:16:47;;;;;;;0.40;0.40;;;;;;;-1.60;85.61;98118.66;5036362;28;20276;-83
2021/01/31 01:19:19;;;;;;;0.50;0.50;;;;;;;-1.65;85.22;98093.91;5045850;23;20256;-82
2021/01/31 01:21:51;;;;;;;0.50;0.50;;;;;;;-1.65;85.44;98084.22;5063670;23;20224;-82
2021/01/31 01:25:02;;;;;;;0.40;0.40;;;;;;;-1.39;85.68;98113.50;5027677;28;20195;-82
2021/01/31 01:27:31;;;;;;;0.40;0.40;;;;;;;-1.41;85.78;98112.06;5047109;23;20275;-82
2021/01/31 01:30:03;;;;;;;0.40;0.40;;;;;;;-1.38;85.75;98117.75;5024514;28;20188;-82
2021/01/31 01:32:51;;;;;;;0.40;0.40;;;;;;;-1.71;85.78;98069.19;5062095;23;20224;-82
2021/01/31 01:38:12;;;;;;;0.40;0.40;;;;;;;-1.41;85.78;98091.84;5053979;23;20228;-82
2021/01/31 01:40:44;;;;;;;0.40;0.40;;;;;;;-1.27;85.56;98103.34;5003361;28;20812;-83
2021/01/31 01:43:18;;;;;;;0.40;0.40;;;;;;;-1.36;85.59;98094.75;5023970;23;20281;-82
2021/01/31 01:46:23;;;;;;;0.40;0.40;;;;;;;-1.20;85.39;98111.31;5004552;28;20233;-83
2021/01/31 01:49:24;;;;;;;0.50;0.50;;;;;;;-1.23;85.16;98107.25;5046181;23;20247;-82
2021/01/31 01:52:13;;;;;;;0.40;0.40;;;;;;;-1.21;85.08;98117.59;5040522;28;20228;-82
2021/01/31 01:54:46;;;;;;;0.30;0.30;;;;;;;-1.43;85.34;98088.56;5039806;28;20542;-83
2021/01/31 01:57:51;;;;;;;0.40;0.40;;;;;;;-1.23;85.11;98120.38;5042031;28;20175;-82
2021/01/31 02:00:31;;;;;;;0.40;0.40;;;;;;;-1.33;85.19;98115.41;5056962;28;20208;-82
2021/01/31 02:03:27;;;;;;;0.40;0.40;;;;;;;-1.33;85.06;98106.69;5042834;23;20228;-82
2021/01/31 02:08:44;;;;;;;0.40;0.40;;;;;;;-1.18;84.56;98130.34;4992109;28;20246;-82
2021/01/31 02:11:14;;;;;;;0.40;0.40;;;;;;;-1.22;84.10;98134.34;5050788;23;20236;-81
2021/01/31 02:14:02;;;;;;;0.40;0.40;;;;;;;-1.20;84.44;98142.84;5015666;23;20235;-82
2021/01/31 02:17:13;;;;;;;0.50;0.50;;;;;;;-1.19;84.22;98131.34;5053774;23;20216;-82
2021/01/31 02:20:14;;;;;;;0.50;0.50;;;;;;;-1.21;84.22;98136.78;5047678;23;20216;-82
2021/01/31 02:23:27;;;;;;;0.40;0.40;;;;;;;-1.20;84.86;98127.91;5052661;28;20192;-82
2021/01/31 02:26:04;;;;;;;0.40;0.40;;;;;;;-1.15;84.22;98129.97;5061516;23;20240;-82
2021/01/31 02:29:13;;;;;;;0.40;0.40;;;;;;;-1.19;84.01;98118.22;5018703;23;20224;-83
2021/01/31 02:32:12;;;;;;;0.50;0.50;;;;;;;-1.14;83.98;98121.94;5033920;28;20220;-82
2021/01/31 02:35:35;;;;;;;0.50;0.50;;;;;;;-1.15;83.40;98115.03;5041755;23;20229;-82
2021/01/31 02:38:34;;;;;;;0.47;0.47;;;;;;;-1.16;82.93;98113.41;5019128;23;20268;-82
2021/01/31 02:41:34;;;;;;;0.40;0.40;;;;;;;-1.16;80.86;98108.13;4988663;28;20225;-82
2021/01/31 02:44:16;;;;;;;0.47;0.47;;;;;;;-1.16;79.57;98109.94;5022750;23;20221;-82
2021/01/31 02:47:14;;;;;;;0.40;0.40;;;;;;;-1.18;79.26;98119.84;4987396;23;20226;-81
2021/01/31 02:50:09;;;;;;;0.40;0.40;;;;;;;-1.03;77.57;98115.41;4988886;23;20257;-83
2021/01/31 02:52:53;;;;;;;0.40;0.40;;;;;;;-1.09;77.27;98110.88;4990928;23;20296;-82
2021/01/31 02:55:53;;;;;;;0.50;0.50;;;;;;;-1.18;77.85;98109.34;5022092;23;20265;-82
2021/01/31 02:58:46;;;;;;;0.50;0.50;;;;;;;-1.17;77.31;98124.94;5025606;23;20249;-82
2021/01/31 03:01:29;;;;;;;0.50;0.50;;;;;;;-1.14;76.60;98118.47;5017886;23;20232;-82
2021/01/31 03:04:21;;;;;;;0.40;0.40;;;;;;;-1.23;76.81;98112.50;5020887;28;20172;-81
2021/01/31 03:07:16;;;;;;;0.40;0.40;;;;;;;-1.15;77.08;98127.34;5049880;23;20208;-83
2021/01/31 03:10:23;;;;;;;0.50;0.50;;;;;;;-1.15;76.40;98125.53;5046258;23;20204;-81
2021/01/31 03:13:12;;;;;;;0.40;0.40;;;;;;;-1.15;75.76;98125.53;5034466;23;20224;-82
2021/01/31 03:16:36;;;;;;;0.40;0.40;;;;;;;-1.07;75.98;98135.13;5044843;23;20249;-82
2021/01/31 03:19:35;;;;;;;0.47;0.47;;;;;;;-1.06;75.80;98137.59;4936783;28;20229;-81
2021/01/31 03:22:28;;;;;;;0.50;0.50;;;;;;;-1.00;75.22;98134.25;5018929;28;20292;-82
2021/01/31 03:25:20;;;;;;;0.50;0.50;;;;;;;-1.14;75.25;98110.59;4980299;28;20242;-82
2021/01/31 03:28:07;;;;;;;0.40;0.40;;;;;;;-1.07;74.15;98124.63;5054462;23;20236;-81
2021/01/31 03:30:33;;;;;;;0.50;0.50;;;;;;;-0.96;74.36;98145.22;5012774;28;20224;-81
2021/01/31 03:33:13;;;;;;;0.50;0.50;;;;;;;-0.97;74.08;98146.19;5050622;23;20232;-82
2021/01/31 03:38:52;;;;;;;0.40;0.40;;;;;;;-1.20;74.84;98119.19;5038230;23;20237;-81
2021/01/31 03:41:33;;;;;;;0.50;0.50;;;;;;;-1.13;75.07;98131.44;4996498;23;20229;-81
2021/01/31 03:44:36;;;;;;;0.30;0.30;;;;;;;-1.04;75.83;98137.41;5012637;23;20367;-81
2021/01/31 03:48:09;;;;;;;0.50;0.50;;;;;;;-0.91;75.92;98143.66;5016069;28;20264;-82
2021/01/31 03:50:35;;;;;;;0.40;0.40;;;;;;;-1.03;74.69;98126.75;5033155;28;20214;-81
2021/01/31 03:53:25;;;;;;;0.40;0.40;;;;;;;-0.93;75.08;98150.09;5034653;23;20236;-82
2021/01/31 03:55:55;;;;;;;0.50;0.50;;;;;;;-0.86;74.83;98145.75;5068120;23;20240;-82
2021/01/31 03:58:30;;;;;;;0.50;0.50;;;;;;;-0.95;74.40;98131.88;5049015;23;20338;-82
2021/01/31 04:01:04;;;;;;;0.50;0.50;;;;;;;-0.88;73.88;98148.53;5024975;23;20230;-81
2021/01/31 04:03:34;;;;;;;0.40;0.40;;;;;;;-0.86;73.54;98151.00;5024749;23;20221;-82
2021/01/31 04:06:19;;;;;;;0.40;0.40;;;;;;;-1.01;74.28;98131.78;5004592;23;20280;-82
2021/01/31 04:09:08;;;;;;;0.50;0.50;;;;;;;-0.81;73.37;98147.81;5026489;23;20237;-81
2021/01/31 04:11:36;;;;;;;0.50;0.50;;;;;;;-0.92;73.93;98143.84;4996016;23;20254;-81
2021/01/31 04:14:15;;;;;;;0.40;0.40;;;;;;;-0.87;74.27;98146.75;4985252;28;20253;-81
2021/01/31 04:17:25;;;;;;;0.50;0.50;;;;;;;-0.86;73.55;98147.56;4992024;28;20219;-82
2021/01/31 04:20:02;;;;;;;0.40;0.40;;;;;;;-0.86;73.74;98144.94;4939031;29;20207;-82
2021/01/31 04:22:33;;;;;;;0.40;0.40;;;;;;;-1.05;74.05;98136.59;5014544;23;20230;-82
2021/01/31 04:25:10;;;;;;;0.40;0.40;;;;;;;-1.08;74.18;98126.47;5049873;23;20232;-81
2021/01/31 04:27:40;;;;;;;0.50;0.50;;;;;;;-1.07;72.64;98130.69;5017401;28;20229;-81
2021/01/31 04:30:37;;;;;;;0.40;0.40;;;;;;;-1.01;73.12;98129.97;5022042;28;20213;-81
2021/01/31 04:33:15;;;;;;;0.40;0.40;;;;;;;-0.91;72.79;98138.41;5047367;23;20308;-82
2021/01/31 04:35:43;;;;;;;0.40;0.40;;;;;;;-0.95;72.32;98138.97;5031861;23;20295;-81
2021/01/31 04:38:33;;;;;;;0.40;0.40;;;;;;;-0.98;72.60;98145.38;5006825;28;20233;-81
2021/01/31 04:43:54;;;;;;;0.50;0.50;;;;;;;-1.11;71.36;98118.91;5022011;23;20460;-82
2021/01/31 04:46:40;;;;;;;0.40;0.40;;;;;;;-0.97;71.78;98146.19;5000835;28;20241;-82
2021/01/31 04:49:30;;;;;;;0.43;0.43;;;;;;;-1.03;72.52;98142.50;5008027;23;20256;-82
2021/01/31 04:52:35;;;;;;;0.50;0.50;;;;;;;-0.93;72.29;98163.22;5029430;23;20287;-81
2021/01/31 04:55:15;;;;;;;0.40;0.40;;;;;;;-1.13;72.85;98141.97;5055190;28;20203;-82
2021/01/31 04:58:03;;;;;;;0.40;0.40;;;;;;;-0.98;72.83;98161.16;5052060;28;20236;-81
2021/01/31 05:00:34;;;;;;;0.40;0.40;;;;;;;-0.96;72.63;98161.78;5031027;23;20229;-82
2021/01/31 05:03:23;;;;;;;0.40;0.40;;;;;;;-0.83;71.85;98161.16;5032870;28;20214;-81
2021/01/31 05:06:04;;;;;;;0.40;0.40;;;;;;;-0.86;71.66;98163.34;5013334;28;20253;-82
2021/01/31 05:08:45;;;;;;;0.50;0.50;;;;;;;-0.97;71.54;98169.84;5014308;23;20291;-82
2021/01/31 05:12:13;;;;;;;0.40;0.40;;;;;;;-0.97;71.79;98173.31;4992569;28;21116;-81
2021/01/31 05:15:16;;;;;;;0.50;0.50;;;;;;;-0.98;72.71;98174.28;5024906;23;20320;-82
2021/01/31 05:18:34;;;;;;;0.50;0.50;;;;;;;-1.08;72.56;98167.69;5024740;23;20240;-82
2021/01/31 05:21:10;;;;;;;0.40;0.40;;;;;;;-1.04;72.52;98177.66;5096177;23;20228;-82
2021/01/31 05:24:14;;;;;;;0.40;0.40;;;;;;;-1.06;73.05;98177.03;5037806;28;20245;-81
2021/01/31 05:26:54;;;;;;;0.50;0.50;;;;;;;-1.06;72.76;98177.03;5033090;23;20225;-82
2021/01/31 05:29:47;;;;;;;0.40;0.40;;;;;;;-1.08;73.22;98175.59;4999030;28;20198;-82
2021/01/31 05:32:20;;;;;;;0.40;0.40;;;;;;;-1.02;72.15;98173.03;5013560;28;20244;-81
2021/01/31 05:34:58;;;;;;;0.50;0.50;;;;;;;-1.04;72.31;98168.97;4982497;28;20241;-81
2021/01/31 05:37:45;;;;;;;0.40;0.40;;;;;;;-1.08;72.00;98176.41;4995985;28;20240;-81
2021/01/31 05:40:45;;;;;;;0.50;0.50;;;;;;;-1.20;72.05;98163.88;5007823;23;20229;-81
2021/01/31 05:43:38;;;;;;;0.40;0.40;;;;;;;-1.07;72.29;98195.59;4982717;23;20226;-81
2021/01/31 05:49:50;;;;;;;0.40;0.40;;;;;;;-1.18;71.73;98186.38;5039917;23;20504;-81
2021/01/31 05:52:26;;;;;;;0.50;0.50;;;;;;;-1.11;72.48;98200.41;5039939;23;20217;-81
2021/01/31 05:55:48;;;;;;;0.50;0.50;;;;;;;-1.18;72.75;98207.38;5051225;23;20236;-82
2021/01/31 05:58:39;;;;;;;0.50;0.50;;;;;;;-1.14;72.82;98213.91;5093423;22;20239;-82
2021/01/31 06:01:54;;;;;;;0.40;0.40;;;;;;;-1.12;72.82;98222.41;5054403;28;20235;-81
2021/01/31 06:04:31;;;;;;;0.50;0.50;;;;;;;-1.13;73.19;98222.63;5134125;23;20216;-82
2021/01/31 06:07:40;;;;;;;0.50;0.50;;;;;;;-1.16;72.77;98218.53;5062044;22;20236;-81
2021/01/31 06:10:23;;;;;;;0.40;0.40;;;;;;;-1.08;72.40;98231.59;5043968;22;20226;-81
2021/01/31 06:13:03;;;;;;;0.40;0.40;;;;;;;-1.16;72.80;98213.25;5041230;23;20327;-81
2021/01/31 06:15:46;;;;;;;0.43;0.43;;;;;;;-1.00;72.53;98239.41;5029148;23;20213;-80
2021/01/31 06:18:27;;;;;;;0.50;0.50;;;;;;;-1.08;71.93;98222.91;5036316;28;20221;-80
2021/01/31 06:21:10;;;;;;;0.47;0.47;;;;;;;-1.02;71.95;98244.00;5052510;28;20226;-80
2021/01/31 06:23:59;;;;;;;0.50;0.50;;;;;;;-1.10;72.15;98225.69;5052105;28;21433;-80
2021/01/31 06:26:33;;;;;;;0.40;0.40;;;;;;;-1.09;72.35;98243.09;5059958;23;20263;-81
2021/01/31 06:29:38;;;;;;;0.40;0.40;;;;;;;-1.00;72.68;98256.97;5057266;23;20210;-80
2021/01/31 06:32:26;;;;;;;0.50;0.50;;;;;;;-1.00;72.60;98262.25;5055659;23;20211;-81
2021/01/31 06:35:14;;;;;;;0.40;0.40;;;;;;;-0.99;72.87;98263.88;5062830;28;20222;-79
2021/01/31 06:38:01;;;;;;;0.40;0.40;;;;;;;-0.96;72.98;98269.59;5076292;28;20708;-82
2021/01/31 06:40:43;;;;;;;0.40;0.40;;;;;;;-0.91;73.06;98276.94;5061016;28;20254;-80
2021/01/31 06:47:20;;;;;;;0.40;0.40;;;;;;;-0.88;72.29;98280.03;5043169;22;20229;-81
2021/01/31 06:50:17;;;;;;;0.40;0.40;;;;;;;-0.84;71.85;98288.34;5161025;23;20238;-81
2021/01/31 06:53:29;;;;;;;0.43;0.43;;;;;;;-0.84;71.15;98284.94;5063818;28;20230;-81
2021/01/31 06:56:37;;;;;;;0.50;0.50;;;;;;;-0.90;70.51;98284.66;5078003;23;20204;-81
2021/01/31 07:00:03;;;;;;;0.47;0.47;;;;;;;-1.00;71.11;98265.69;5079912;23;20731;-81
2021/01/31 07:03:05;;;;;;;0.40;0.40;;;;;;;-0.78;70.84;98298.16;5055118;23;20279;-82
2021/01/31 07:06:04;;;;;;;0.43;0.43;;;;;;;-0.80;71.11;98297.53;5032712;23;20216;-81
2021/01/31 07:09:12;;;;;;;0.40;0.40;;;;;;;-0.78;71.57;98286.81;5043696;28;20208;-81
2021/01/31 07:12:08;;;;;;;0.40;0.40;;;;;;;-0.60;70.78;98292.53;5079212;23;20219;-81
2021/01/31 07:18:24;;;;;;;0.40;0.40;;;;;;;-0.59;70.70;98284.47;5078434;23;20433;-81
2021/01/31 07:20:59;;;;;;;0.50;0.50;;;;;;;-0.51;69.61;98296.72;5054908;23;20208;-81
2021/01/31 07:23:34;;;;;;;0.43;0.43;;;;;;;-0.58;70.19;98280.88;5078864;23;20232;-81
2021/01/31 07:26:33;;;;;;;0.40;0.40;;;;;;;-0.45;69.83;98285.47;5156071;23;20262;-81
2021/01/31 07:29:38;;;;;;;0.40;0.40;;;;;;;-0.44;70.04;98284.47;5077899;23;20247;-81
2021/01/31 07:32:23;;;;;;;0.40;0.40;;;;;;;-0.34;70.91;98295.56;5081204;23;20207;31
2021/01/31 07:36:10;;;;;;;0.50;0.50;;;;;;;-0.24;70.75;98287.38;5022513;22;20216;-82
2021/01/31 07:39:17;;;;;;;0.50;0.50;;;;;;;-0.12;69.44;98293.78;5060894;28;20552;-81
2021/01/31 07:41:53;;;;;;;0.40;0.40;;;;;;;-0.05;68.72;98294.72;5148579;23;20322;-81
2021/01/31 07:44:27;;;;;;;0.40;0.40;;;;;;;-0.09;68.93;98285.50;5064285;23;20235;-81
2021/01/31 07:47:24;;;;;;;0.40;0.40;;;;;;;0.06;68.59;98302.13;5056485;28;20224;-81
2021/01/31 07:50:41;;;;;;;0.40;0.40;;;;;;;0.05;67.86;98286.50;5039622;23;20492;-80
2021/01/31 07:53:16;;;;;;;0.50;0.50;;;;;;;0.08;67.46;98272.97;5044490;23;20537;-82
2021/01/31 07:55:45;;;;;;;0.40;0.40;;;;;;;0.24;67.56;98278.81;5053630;23;20219;-82
2021/01/31 07:58:35;;;;;;;0.40;0.40;;;;;;;0.34;66.65;98295.13;5062933;28;20176;-81
2021/01/31 08:01:43;;;;;;;0.50;0.50;;;;;;;0.41;66.44;98293.41;5172447;23;20262;-80
2021/01/31 08:04:38;;;;;;;0.40;0.40;;;;;;;0.50;66.55;98295.91;5080411;23;20228;-81
2021/01/31 08:07:58;;;;;;;0.40;0.40;;;;;;;0.53;65.17;98298.97;5069427;23;20796;-81
2021/01/31 08:11:03;;;;;;;0.50;0.50;;;;;;;0.53;64.91;98291.06;5061041;23;20704;-80
2021/01/31 08:13:49;;;;;;;0.40;0.40;;;;;;;0.58;65.39;98290.50;5061170;23;20239;-80
2021/01/31 08:16:58;;;;;;;0.40;0.40;;;;;;;0.61;65.48;98293.56;5056068;28;20228;-80
2021/01/31 08:20:27;;;;;;;0.50;0.50;;;;;;;0.51;64.84;98287.81;5067637;23;20271;-81
2021/01/31 08:23:11;;;;;;;0.50;0.50;;;;;;;0.55;65.17;98275.91;5097695;23;20563;-81
2021/01/31 08:27:03;;;;;;;0.40;0.40;;;;;;;0.58;65.50;98287.88;5071166;23;20299;-81
2021/01/31 08:30:42;;;;;;;0.40;0.40;;;;;;;0.52;65.04;98291.25;5083418;23;20295;-81
2021/01/31 08:33:35;;;;;;;0.40;0.40;;;;;;;0.57;65.47;98291.50;5048642;28;20214;-81
2021/01/31 08:36:21;;;;;;;0.50;0.50;;;;;;;0.44;64.36;98295.66;5069966;23;20333;-81
2021/01/31 08:38:59;;;;;;;0.40;0.40;;;;;;;0.24;64.79;98284.06;5061830;23;20293;-81
2021/01/31 08:41:26;;;;;;;0.50;0.50;;;;;;;0.33;65.82;98297.94;5039687;28;20236;-81
2021/01/31 08:44:11;;;;;;;0.40;0.40;;;;;;;0.28;66.16;98297.72;5088587;23;20262;-81
2021/01/31 08:47:16;;;;;;;0.40;0.40;;;;;;;-0.13;66.26;98261.38;5058329;23;20239;-81
2021/01/31 08:50:25;;;;;;;0.40;0.40;;;;;;;0.17;66.74;98309.53;5083514;22;20208;-81
2021/01/31 08:53:24;;;;;;;0.40;0.40;;;;;;;0.03;67.39;98291.13;5058530;23;20219;-81
2021/01/31 08:55:51;;;;;;;0.40;0.40;;;;;;;0.11;67.04;98310.28;5037083;23;20236;-82
2021/01/31 08:58:17;;;;;;;0.50;0.50;;;;;;;-0.12;66.49;98278.00;5074564;23;20276;-82
2021/01/31 09:00:58;;;;;;;0.40;0.40;;;;;;;-0.04;67.29;98304.22;5044062;28;20233;-81
2021/01/31 09:04:10;;;;;;;0.40;0.40;;;;;;;0.03;66.86;98313.03;5061298;23;20243;-81
2021/01/31 09:06:49;;;;;;;0.40;0.40;;;;;;;-0.10;66.77;98282.09;5061300;23;20212;-81
2021/01/31 09:09:34;;;;;;;0.40;0.40;;;;;;;-0.04;66.89;98280.53;5057864;28;20275;-81
2021/01/31 09:12:13;;;;;;;0.40;0.40;;;;;;;-0.08;67.42;98276.63;5066367;23;20258;-81
2021/01/31 09:14:44;;;;;;;0.40;0.40;;;;;;;0.13;68.12;98308.28;5058522;28;20196;-81
2021/01/31 09:17:26;;;;;;;0.40;0.40;;;;;;;0.30;68.11;98320.22;5060071;28;20211;-81
2021/01/31 09:20:16;;;;;;;0.40;0.40;;;;;;;0.40;67.41;98315.47;5063330;23;20235;-81
2021/01/31 09:22:57;;;;;;;0.40;0.40;;;;;;;0.34;65.91;98294.31;5054379;23;20231;-81
2021/01/31 09:25:27;;;;;;;0.40;0.40;;;;;;;0.38;64.55;98300.84;5068752;28;20274;-81
2021/01/31 09:28:03;;;;;;;0.50;0.50;;;;;;;0.46;64.18;98321.81;5058930;23;20232;-81
2021/01/31 09:30:31;;;;;;;0.40;0.40;;;;;;;0.25;65.85;98284.91;5039745;22;21328;-81
2021/01/31 09:33:26;;;;;;;0.40;0.40;;;;;;;0.42;66.48;98310.81;5024437;23;20244;-80
2021/01/31 09:36:39;;;;;;;0.50;0.50;;;;;;;0.60;66.68;98315.69;5013946;28;20222;-81
2021/01/31 09:39:29;;;;;;;0.40;0.40;;;;;;;0.97;64.75;98326.97;5041596;23;20228;-81
2021/01/31 09:42:22;;;;;;;0.40;0.40;;;;;;;1.06;63.83;98326.63;5021732;28;20223;-81
2021/01/31 09:45:05;;;;;;;0.40;0.40;;;;;;;1.09;63.35;98328.88;5050698;28;20232;-81
2021/01/31 09:47:48;;;;;;;0.40;0.40;;;;;;;0.91;62.62;98319.78;5043765;28;20200;-81
2021/01/31 09:50:28;;;;;;;0.40;0.40;;;;;;;0.81;64.06;98299.84;5041220;28;20230;-80
2021/01/31 09:53:03;;;;;;;0.40;0.40;;;;;;;0.98;63.85;98326.75;5163967;22;20251;-80
2021/01/31 09:55:45;;;;;;;0.50;0.50;;;;;;;1.00;63.75;98321.28;5026043;23;20228;-81
2021/01/31 09:59:01;;;;;;;0.40;0.40;;;;;;;1.00;63.86;98327.38;5050792;28;20198;-81
2021/01/31 10:01:31;;;;;;;0.40;0.40;;;;;;;1.00;63.53;98322.13;5060520;23;20235;-81
2021/01/31 10:04:04;;;;;;;0.40;0.40;;;;;;;0.82;63.46;98296.22;5081314;23;20223;-81
2021/01/31 10:07:31;;;;;;;0.40;0.40;;;;;;;0.83;63.75;98320.75;5072748;28;20220;-81
2021/01/31 10:10:41;;;;;;;0.40;0.40;;;;;;;0.93;64.54;98312.53;5086632;23;20221;-81
2021/01/31 10:13:12;;;;;;;0.40;0.40;;;;;;;1.16;63.84;98323.66;5030058;28;20221;-80
2021/01/31 10:15:42;;;;;;;0.50;0.50;;;;;;;1.21;62.98;98326.56;5031350;28;20228;-81
2021/01/31 10:18:31;;;;;;;0.40;0.40;;;;;;;1.28;63.54;98330.84;5050865;23;20331;-81
2021/01/31 10:21:29;;;;;;;0.40;0.40;;;;;;;1.33;64.42;98340.84;5058694;23;20242;-81
2021/01/31 10:24:18;;;;;;;0.40;0.40;;;;;;;1.49;63.70;98342.38;5093527;23;20242;-81
2021/01/31 10:30:36;;;;;;;0.47;0.47;;;;;;;1.79;61.63;98351.69;5058094;23;20227;-81
2021/01/31 10:33:43;;;;;;;0.40;0.40;;;;;;;1.87;61.32;98359.44;5017617;23;20217;-81
2021/01/31 10:36:54;;;;;;;0.40;0.40;;;;;;;1.89;59.75;98354.81;5069828;23;20224;-81
2021/01/31 10:39:28;;;;;;;0.40;0.40;;;;;;;1.97;59.41;98354.63;5079387;23;20219;-82
2021/01/31 10:42:10;;;;;;;0.50;0.50;;;;;;;1.93;60.23;98318.25;5028920;23;20238;-81
2021/01/31 10:44:47;;;;;;;0.40;0.40;;;;;;;1.94;59.99;98304.84;5036768;28;20627;-81
2021/01/31 10:47:18;;;;;;;0.40;0.40;;;;;;;2.15;58.66;98325.84;5059103;23;20240;-81
2021/01/31 10:50:23;;;;;;;0.40;0.40;;;;;;;2.00;59.07;98316.47;5036636;28;20228;-81
2021/01/31 10:53:04;;;;;;;0.40;0.40;;;;;;;1.94;58.99;98307.50;5062992;23;20223;-81
2021/01/31 10:55:41;;;;;;;0.40;0.40;;;;;;;2.21;59.94;98321.63;5040207;28;20211;-81
2021/01/31 10:58:11;;;;;;;0.40;0.40;;;;;;;2.02;59.62;98280.06;5039350;28;20194;-81
2021/01/31 11:00:41;;;;;;;0.50;0.50;;;;;;;2.34;60.50;98340.16;5039165;28;20196;-82
2021/01/31 11:03:10;;;;;;;0.50;0.50;;;;;;;2.10;58.87;98309.78;5054665;28;20251;-82
2021/01/31 11:05:39;;;;;;;0.40;0.40;;;;;;;2.17;60.36;98305.34;5149703;23;20211;-81
2021/01/31 11:08:24;;;;;;;0.40;0.40;;;;;;;2.28;60.48;98327.75;5064884;28;20214;-81
2021/01/31 11:14:29;;;;;;;0.30;0.30;;;;;;;2.46;55.43;98340.41;5046084;23;20220;31
2021/01/31 11:39:47;;;;;;;0.40;0.40;;;;;;;2.31;55.36;98322.06;5516249;22;17906829;-82
2021/01/31 11:46:13;;;;;;;0.40;0.40;;;;;;;2.04;56.17;98294.75;6313914;22;20189;-82
2021/01/31 11:49:21;;;;;;;0.50;0.50;;;;;;;1.81;56.63;98267.00;6313853;22;20206;-82
2021/01/31 11:55:53;;;;;;;0.40;0.40;;;;;;;2.41;56.59;98292.59;6309235;22;20174;-82
2021/01/31 11:58:47;;;;;;;0.50;0.50;;;;;;;2.11;54.89;98245.34;6270429;22;20194;-82
2021/01/31 12:01:44;;;;;;;0.40;0.40;;;;;;;2.34;55.96;98303.16;6279822;22;20193;-82
2021/01/31 12:05:17;;;;;;;0.40;0.40;;;;;;;1.71;56.23;98246.25;6353685;22;20196;-82
2021/01/31 12:07:55;;;;;;;0.40;0.40;;;;;;;1.88;57.22;98268.66;6331007;22;20256;-82
2021/01/31 12:10:32;;;;;;;0.40;0.40;;;;;;;1.81;57.16;98265.19;6344087;22;20160;-82
2021/01/31 12:13:01;;;;;;;0.40;0.40;;;;;;;1.75;57.95;98250.94;6344575;22;20153;-82
2021/01/31 12:15:55;;;;;;;0.40;0.40;;;;;;;1.83;57.71;98257.84;6309714;22;20193;-82
2021/01/31 12:18:37;;;;;;;0.40;0.40;;;;;;;1.77;58.17;98262.09;6318209;22;20200;-82
2021/01/31 12:21:25;;;;;;;0.40;0.40;;;;;;;1.75;57.32;98242.19;6313086;22;20197;-82
2021/01/31 12:24:24;;;;;;;0.40;0.40;;;;;;;1.74;58.22;98251.13;6267236;22;20186;-82
2021/01/31 12:27:34;;;;;;;0.40;0.40;;;;;;;1.81;59.02;98251.16;6329990;22;20197;-81
2021/01/31 12:30:31;;;;;;;0.40;0.40;;;;;;;2.03;57.02;98261.41;6298948;22;20222;-80
2021/01/31 12:33:03;;;;;;;0.40;0.40;;;;;;;1.82;58.17;98235.09;6246277;22;20191;-82
2021/01/31 12:35:38;;;;;;;0.47;0.47;;;;;;;2.10;57.11;98262.22;6239710;22;20182;-82
2021/01/31 12:38:06;;;;;;;0.40;0.40;;;;;;;1.92;57.30;98232.91;6220737;22;20204;-82
2021/01/31 12:40:37;;;;;;;0.40;0.40;;;;;;;2.07;57.97;98264.44;6210493;23;20759;-81
2021/01/31 12:43:05;;;;;;;0.47;0.47;;;;;;;1.90;56.80;98239.41;6180081;22;20215;-83
2021/01/31 12:46:00;;;;;;;0.40;0.40;;;;;;;2.14;57.35;98271.41;6270855;23;20211;-80
2021/01/31 12:49:09;;;;;;;0.50;0.50;;;;;;;2.14;55.69;98233.59;6299770;22;20214;-80
2021/01/31 12:52:28;;;;;;;0.40;0.40;;;;;;;2.32;55.74;98248.88;6302296;22;20733;-80
2021/01/31 12:55:33;;;;;;;0.40;0.40;;;;;;;2.46;56.37;98250.53;6302153;22;20251;-81
2021/01/31 12:58:16;;;;;;;0.40;0.40;;;;;;;2.72;54.85;98250.53;6277706;22;20204;-81
2021/01/31 13:01:02;;;;;;;0.40;0.40;;;;;;;2.62;53.90;98211.28;6237558;22;20214;-80
2021/01/31 13:03:38;;;;;;;0.40;0.40;;;;;;;2.94;54.31;98237.94;6207969;23;20245;-80
2021/01/31 13:06:49;;;;;;;0.40;0.40;;;;;;;2.92;54.62;98243.44;6226278;23;20243;-81
2021/01/31 13:09:37;;;;;;;0.40;0.40;;;;;;;2.82;54.63;98235.09;6221030;23;20136;-81
2021/01/31 13:12:06;;;;;;;0.40;0.40;;;;;;;2.83;55.04;98234.06;6223268;23;20186;-81
2021/01/31 13:14:37;;;;;;;0.40;0.40;;;;;;;3.04;56.55;98251.53;6246118;23;20187;-82
2021/01/31 13:17:07;;;;;;;0.40;0.40;;;;;;;3.12;55.78;98243.41;6216934;23;20195;-81
2021/01/31 13:19:38;;;;;;;0.40;0.40;;;;;;;3.22;56.08;98229.78;6230727;22;20199;-81
2021/01/31 13:22:40;;;;;;;0.40;0.40;;;;;;;3.34;56.52;98239.50;6247105;23;20202;-81
2021/01/31 13:25:46;;;;;;;0.40;0.40;;;;;;;3.67;54.75;98247.38;6270324;22;20194;-81
2021/01/31 13:28:13;;;;;;;0.40;0.40;;;;;;;3.82;54.92;98250.56;6215799;23;20218;-82
2021/01/31 13:30:45;;;;;;;0.40;0.40;;;;;;;3.74;55.48;98215.53;6190182;23;20340;-81
2021/01/31 13:33:16;;;;;;;0.30;0.30;;;;;;;4.08;55.30;98254.94;6262151;22;20240;-81
2021/01/31 13:35:45;;;;;;;0.37;0.37;;;;;;;4.10;54.38;98234.34;6254044;22;20155;-81
2021/01/31 13:38:12;;;;;;;0.40;0.40;;;;;;;4.23;54.31;98244.06;6285155;22;20186;-82
2021/01/31 13:40:48;;;;;;;0.40;0.40;;;;;;;4.23;54.02;98231.63;6257390;22;20147;-81
2021/01/31 13:43:44;;;;;;;0.30;0.30;;;;;;;4.19;53.34;98235.72;6212177;22;20250;-82
2021/01/31 13:46:33;;;;;;;0.40;0.40;;;;;;;4.14;53.63;98235.53;6197815;23;20207;-81
2021/01/31 13:49:00;;;;;;;0.30;0.30;;;;;;;4.02;53.86;98234.56;6270697;22;20210;-81
2021/01/31 13:51:48;;;;;;;0.40;0.40;;;;;;;3.87;54.83;98216.28;6221162;23;20203;-81
2021/01/31 13:54:17;;;;;;;0.40;0.40;;;;;;;3.72;54.25;98194.56;6217798;22;20214;-82
2021/01/31 13:56:44;;;;;;;0.40;0.40;;;;;;;3.83;55.18;98215.09;6247466;23;20156;-81
2021/01/31 13:59:15;;;;;;;0.40;0.40;;;;;;;3.68;54.45;98184.59;6205926;23;20199;-81
2021/01/31 14:01:42;;;;;;;0.40;0.40;;;;;;;3.77;54.85;98200.06;6239440;23;20208;-81
2021/01/31 14:04:10;;;;;;;0.40;0.40;;;;;;;3.90;53.79;98218.53;6217901;23;20218;-81
2021/01/31 14:06:46;;;;;;;0.30;0.30;;;;;;;3.82;54.67;98200.25;6271669;23;20182;-81
2021/01/31 14:09:33;;;;;;;0.30;0.30;;;;;;;3.80;52.12;98212.06;6261618;22;20225;-81
2021/01/31 14:12:03;;;;;;;0.40;0.40;;;;;;;3.53;51.79;98196.28;6242375;23;20295;-81